Time;durP1;ratioP1;P1;durP2;ratioP2;P2;SDS_P1;SDS_P2;PMS_P1;PMS_P2;Temp;Humidity;BMP_temperature;BMP_pressure;BME280_temperature;BME280_humidity;BME280_pressure;Samples;Min_cycle;Max_cycle;Signal;HPM_P1;HPM_P2
2023/06/01 00:02:09;;;;;;;11.13;5.97;;;;;;;15.34;100.00;94797.03;5063385;28;20900;-46
2023/06/01 00:04:40;;;;;;;7.57;5.67;;;;;;;15.26;100.00;94800.41;5050643;28;20290;-45
2023/06/01 00:07:07;;;;;;;7.23;5.73;;;;;;;15.17;100.00;94798.00;5050740;28;20191;-50
2023/06/01 00:09:34;;;;;;;8.40;6.10;;;;;;;15.14;100.00;94793.19;5063159;28;20197;-44
2023/06/01 00:12:02;;;;;;;7.77;6.00;;;;;;;15.11;100.00;94794.31;5070632;28;20198;-46
2023/06/01 00:14:29;;;;;;;8.80;5.57;;;;;;;15.08;100.00;94791.28;5070853;28;20763;-44
2023/06/01 00:16:56;;;;;;;6.17;5.33;;;;;;;15.03;100.00;94792.56;5071103;28;20205;-46
2023/06/01 00:19:24;;;;;;;8.77;5.77;;;;;;;15.02;100.00;94787.56;5070323;28;20240;-46
2023/06/01 00:21:53;;;;;;;9.67;6.17;;;;;;;14.99;100.00;94786.13;5071233;28;20183;-46
2023/06/01 00:24:20;;;;;;;11.03;6.20;;;;;;;14.98;100.00;94786.25;5071173;28;20195;-46
2023/06/01 00:26:47;;;;;;;9.40;5.90;;;;;;;14.90;100.00;94776.00;5071639;28;20213;-47
2023/06/01 00:29:15;;;;;;;6.87;6.00;;;;;;;14.93;100.00;94786.75;5072201;28;20218;-45
2023/06/01 00:31:42;;;;;;;7.30;6.60;;;;;;;14.90;100.00;94783.72;5070897;28;20505;-48
2023/06/01 00:34:09;;;;;;;8.70;5.27;;;;;;;14.84;100.00;94781.78;5070276;28;20926;-45
2023/06/01 00:36:36;;;;;;;14.67;6.40;;;;;;;14.83;100.00;94788.69;5070589;28;20275;-45
2023/06/01 00:39:03;;;;;;;8.73;6.60;;;;;;;14.82;100.00;94786.28;5070166;28;20225;-48
2023/06/01 00:41:31;;;;;;;10.03;6.23;;;;;;;14.79;100.00;94792.56;5069864;28;20191;-49
2023/06/01 00:43:57;;;;;;;8.10;6.37;;;;;;;14.75;100.00;94786.91;5059392;28;20305;-45
2023/06/01 00:46:26;;;;;;;8.07;5.83;;;;;;;14.73;100.00;94788.06;5070480;28;20182;-44
2023/06/01 00:48:54;;;;;;;10.17;6.70;;;;;;;14.73;100.00;94790.63;5070105;28;20240;-44
2023/06/01 00:51:21;;;;;;;11.20;6.50;;;;;;;14.71;100.00;94789.97;5069880;28;20626;-43
2023/06/01 00:53:49;;;;;;;7.53;6.23;;;;;;;14.71;100.00;94792.56;5070460;28;20187;-46
2023/06/01 00:56:16;;;;;;;9.43;6.10;;;;;;;14.70;100.00;94788.38;5070235;28;20190;-43
2023/06/01 00:58:44;;;;;;;10.00;6.67;;;;;;;14.69;100.00;94784.19;5069961;28;20182;-44
2023/06/01 01:01:18;;;;;;;9.03;6.20;;;;;;;14.67;100.00;94791.25;5069714;28;20261;-44
2023/06/01 01:03:49;;;;;;;10.27;6.03;;;;;;;14.66;100.00;94787.88;5069936;28;20306;-44
2023/06/01 01:06:25;;;;;;;8.53;6.77;;;;;;;14.61;100.00;94786.78;5069560;28;20579;-46
2023/06/01 01:09:08;;;;;;;9.57;6.67;;;;;;;14.58;100.00;94785.31;5070608;28;20201;-44
2023/06/01 01:11:38;;;;;;;7.40;5.67;;;;;;;14.59;100.00;94796.41;5068927;28;20597;-45
2023/06/01 01:14:12;;;;;;;13.77;6.30;;;;;;;14.52;100.00;94788.53;5069609;28;20194;-46
2023/06/01 01:16:46;;;;;;;7.40;6.40;;;;;;;14.55;100.00;94794.16;5069467;28;20685;-46
2023/06/01 01:19:34;;;;;;;7.10;6.40;;;;;;;14.57;100.00;94795.78;5069441;28;20331;-45
2023/06/01 01:22:15;;;;;;;8.20;6.43;;;;;;;14.50;100.00;94791.25;5069341;28;20205;-44
2023/06/01 01:25:06;;;;;;;7.90;7.10;;;;;;;14.53;100.00;94795.28;5061086;28;20186;-43
2023/06/01 01:27:44;;;;;;;9.53;6.57;;;;;;;14.54;100.00;94797.69;5069050;28;20442;-43
2023/06/01 01:30:14;;;;;;;16.00;6.93;;;;;;;14.55;100.00;94798.50;5069373;28;20198;-43
2023/06/01 01:32:42;;;;;;;9.50;6.70;;;;;;;14.55;100.00;94798.50;5068822;28;20186;-44
2023/06/01 01:35:11;;;;;;;6.63;6.03;;;;;;;14.47;100.00;94786.41;5069191;28;20303;-46
2023/06/01 01:37:37;;;;;;;12.67;7.13;;;;;;;14.56;100.00;94797.53;5069404;28;20179;-44
2023/06/01 01:40:05;;;;;;;6.77;6.13;;;;;;;14.57;100.00;94791.44;5069367;28;20620;-45
2023/06/01 01:42:32;;;;;;;8.70;7.43;;;;;;;14.62;100.00;94798.66;5068806;28;20197;-43
2023/06/01 01:44:59;;;;;;;7.80;7.00;;;;;;;14.64;100.00;94801.91;5068731;28;20186;-44
2023/06/01 01:47:35;;;;;;;8.37;6.63;;;;;;;14.64;100.00;94796.75;5069008;28;20565;-46
2023/06/01 01:50:07;;;;;;;10.33;6.93;;;;;;;14.64;100.00;94796.75;5069800;28;20178;-46
2023/06/01 01:52:38;;;;;;;8.83;6.77;;;;;;;14.69;100.00;94797.06;5069576;28;20604;-44
2023/06/01 01:55:08;;;;;;;9.10;6.80;;;;;;;14.75;100.00;94799.00;5069076;28;20206;-44
2023/06/01 01:57:35;;;;;;;9.03;7.00;;;;;;;14.69;100.00;94790.16;5068993;28;20190;-42
2023/06/01 02:00:03;;;;;;;12.27;6.80;;;;;;;14.79;100.00;94801.09;5069169;28;20213;-45
2023/06/01 02:02:33;;;;;;;8.93;7.47;;;;;;;14.83;100.00;94805.91;5069092;28;20251;-45
2023/06/01 02:04:59;;;;;;;9.70;7.43;;;;;;;14.82;100.00;94805.13;5066785;28;20566;-47
2023/06/01 02:07:26;;;;;;;11.87;10.53;;;;;;;14.87;100.00;94802.06;5061539;28;20198;-47
2023/06/01 02:09:53;;;;;;;12.43;9.57;;;;;;;14.83;100.00;94798.19;5069037;28;20194;-45
2023/06/01 02:12:20;;;;;;;12.80;10.33;;;;;;;14.84;100.00;94804.94;5068917;28;20658;-45
2023/06/01 02:14:47;;;;;;;11.77;10.37;;;;;;;14.78;100.00;94804.63;5068179;28;20213;-45
2023/06/01 02:17:15;;;;;;;13.87;10.50;;;;;;;14.72;100.00;94807.84;5069185;28;20191;-46
2023/06/01 02:19:43;;;;;;;9.73;8.43;;;;;;;14.69;100.00;94803.03;5073774;28;20607;-46
2023/06/01 02:22:10;;;;;;;14.23;10.00;;;;;;;14.66;100.00;94813.63;5071018;28;20436;-46
2023/06/01 02:24:37;;;;;;;10.70;8.40;;;;;;;14.63;100.00;94810.56;5072572;28;20210;-43
2023/06/01 02:27:05;;;;;;;12.80;8.43;;;;;;;14.64;100.00;94812.19;5072602;28;20205;-44
2023/06/01 02:29:32;;;;;;;8.70;7.80;;;;;;;14.57;100.00;94803.50;5072225;28;20775;-45
2023/06/01 02:31:58;;;;;;;13.33;8.13;;;;;;;14.51;100.00;94808.31;5072747;28;20194;-45
2023/06/01 02:34:25;;;;;;;8.87;7.50;;;;;;;14.41;100.00;94801.66;5072696;28;20191;-45
2023/06/01 02:36:55;;;;;;;11.93;6.70;;;;;;;14.46;100.00;94810.50;5072249;28;20187;-45
2023/06/01 02:39:22;;;;;;;8.87;7.33;;;;;;;14.40;100.00;94806.00;5072435;28;20285;-44
2023/06/01 02:41:49;;;;;;;6.30;5.70;;;;;;;14.36;100.00;94803.91;5072444;28;20209;-45
2023/06/01 02:44:15;;;;;;;6.70;6.10;;;;;;;14.26;100.00;94807.44;5072347;28;20225;-42
2023/06/01 02:46:42;;;;;;;7.63;6.20;;;;;;;14.19;100.00;94809.00;5072134;28;20651;-44
2023/06/01 02:49:09;;;;;;;7.40;6.13;;;;;;;14.13;100.00;94812.22;5072324;28;20190;-45
2023/06/01 02:51:36;;;;;;;8.73;5.83;;;;;;;14.10;100.00;94814.28;5072093;28;20214;-44
2023/06/01 02:54:05;;;;;;;7.93;6.70;;;;;;;14.06;100.00;94808.66;5072170;28;20190;-43
2023/06/01 02:56:31;;;;;;;7.53;6.27;;;;;;;14.00;100.00;94804.94;5072269;28;20288;-49
2023/06/01 02:58:58;;;;;;;10.47;7.57;;;;;;;14.05;100.00;94819.91;5072168;28;20201;-43
2023/06/01 03:01:26;;;;;;;9.30;6.10;;;;;;;14.05;100.00;94820.69;5072643;28;20211;-49
2023/06/01 03:03:52;;;;;;;7.83;6.97;;;;;;;14.08;100.00;94818.78;5074645;28;20210;-46
2023/06/01 03:06:21;;;;;;;12.37;9.47;;;;;;;14.05;100.00;94815.56;5074059;28;20274;-46
2023/06/01 03:08:48;;;;;;;13.90;10.60;;;;;;;14.12;100.00;94818.31;5072005;28;20190;-45
2023/06/01 03:11:16;;;;;;;14.07;10.30;;;;;;;14.16;100.00;94814.47;5071699;28;20549;-46
2023/06/01 03:13:43;;;;;;;16.00;11.97;;;;;;;14.21;100.00;94809.66;5071798;28;20195;-45
2023/06/01 03:16:10;;;;;;;16.40;10.33;;;;;;;14.16;100.00;94808.50;5071913;28;20642;-46
2023/06/01 03:18:36;;;;;;;13.57;10.23;;;;;;;14.31;100.00;94822.38;5071664;28;20195;-45
2023/06/01 03:21:03;;;;;;;18.97;13.00;;;;;;;14.25;100.00;94800.69;5062522;28;20190;-45
2023/06/01 03:23:30;;;;;;;15.97;12.03;;;;;;;14.34;100.00;94822.09;5071677;28;20607;-45
2023/06/01 03:25:57;;;;;;;17.37;12.77;;;;;;;14.37;100.00;94820.94;5071943;28;20187;-46
2023/06/01 03:28:25;;;;;;;18.60;11.43;;;;;;;14.38;100.00;94823.38;5071629;28;20222;-45
2023/06/01 03:30:56;;;;;;;21.63;11.93;;;;;;;14.37;100.00;94832.03;5071484;28;20183;-46
2023/06/01 03:33:22;;;;;;;18.03;11.43;;;;;;;14.44;100.00;94830.47;5070605;28;20193;-44
2023/06/01 03:35:49;;;;;;;19.47;11.30;;;;;;;14.51;100.00;94822.94;5071832;28;20190;-45
2023/06/01 03:38:16;;;;;;;15.23;11.03;;;;;;;14.59;100.00;94824.72;5071431;28;20285;-45
2023/06/01 03:40:43;;;;;;;14.23;10.50;;;;;;;14.73;100.00;94822.34;5071160;28;20198;-44
2023/06/01 03:43:10;;;;;;;16.17;10.27;;;;;;;14.87;100.00;94820.09;5070778;28;20191;-44
2023/06/01 03:45:39;;;;;;;13.30;11.20;;;;;;;15.00;100.00;94828.13;5071264;28;20284;-46
2023/06/01 03:48:06;;;;;;;12.47;10.00;;;;;;;15.09;100.00;94827.16;5070983;28;20198;-45
2023/06/01 03:50:33;;;;;;;12.17;10.83;;;;;;;15.16;100.00;94824.75;5071269;28;20182;-45
2023/06/01 03:53:00;;;;;;;11.70;10.00;;;;;;;15.28;100.00;94831.16;5071036;28;20186;-45
2023/06/01 03:55:27;;;;;;;13.40;9.90;;;;;;;15.31;100.00;94829.06;5071006;28;20264;-43
2023/06/01 03:57:54;;;;;;;13.37;9.97;;;;;;;15.40;100.00;94836.78;5070728;28;20186;-44
2023/06/01 04:00:22;;;;;;;13.77;9.17;;;;;;;15.45;100.00;94839.66;5071087;28;20190;-43
2023/06/01 04:02:53;;;;;;;11.40;9.43;;;;;;;15.40;100.00;94840.16;5070960;28;20232;-45
2023/06/01 04:05:20;;;;;;;16.90;10.53;;;;;;;15.35;100.00;94839.84;5070581;28;20313;-45
2023/06/01 04:07:48;;;;;;;13.93;10.50;;;;;;;15.33;100.00;94836.66;5071063;28;20661;-44
2023/06/01 04:10:16;;;;;;;22.00;10.40;;;;;;;15.35;100.00;94837.28;5070361;28;20190;-46
2023/06/01 04:12:44;;;;;;;12.87;11.03;;;;;;;15.18;100.00;94815.88;5070835;28;20190;-47
2023/06/01 04:15:11;;;;;;;12.30;11.00;;;;;;;15.52;100.00;94838.84;5070611;28;20666;-44
2023/06/01 04:17:39;;;;;;;12.60;11.00;;;;;;;15.60;100.00;94844.97;5070712;28;20708;-44
2023/06/01 04:20:10;;;;;;;15.87;10.23;;;;;;;15.66;100.00;94839.97;5071126;28;20191;-45
2023/06/01 04:22:37;;;;;;;14.60;10.13;;;;;;;15.72;100.00;94834.19;5071065;28;20662;-44
2023/06/01 04:25:07;;;;;;;13.43;10.43;;;;;;;15.81;100.00;94847.84;5070026;28;20211;-44
2023/06/01 04:27:36;;;;;;;11.37;10.13;;;;;;;15.74;100.00;94837.38;5070584;28;20257;-44
2023/06/01 04:30:04;;;;;;;20.40;9.40;;;;;;;15.65;100.00;94837.56;5070245;28;20182;-44
2023/06/01 04:32:31;;;;;;;17.73;10.03;;;;;;;15.62;100.00;94845.59;5069277;28;20195;-44
2023/06/01 04:34:59;;;;;;;16.03;10.37;;;;;;;15.53;100.00;94848.19;5069431;28;20190;-45
2023/06/01 04:37:29;;;;;;;16.03;10.53;;;;;;;15.51;100.00;94844.19;5073893;28;20338;-43
2023/06/01 04:39:56;;;;;;;11.70;9.80;;;;;;;15.51;100.00;94839.03;5066555;28;20190;-47
2023/06/01 04:42:23;;;;;;;14.43;10.47;;;;;;;15.38;100.00;94831.00;5070094;28;20662;-44
2023/06/01 04:44:50;;;;;;;15.53;10.97;;;;;;;15.48;100.00;94853.03;5069459;28;20214;-44
2023/06/01 04:47:17;;;;;;;14.80;11.03;;;;;;;15.47;100.00;94841.13;5069825;28;20187;-44
2023/06/01 04:49:44;;;;;;;22.10;11.70;;;;;;;15.61;100.00;94857.69;5070655;28;20237;-43
2023/06/01 04:52:12;;;;;;;13.53;11.43;;;;;;;15.63;100.00;94854.94;5070387;28;20190;-44
2023/06/01 04:54:41;;;;;;;12.90;10.87;;;;;;;15.66;100.00;94858.03;5070971;28;20645;-41
2023/06/01 04:57:08;;;;;;;14.80;10.40;;;;;;;15.69;100.00;94860.28;5070019;28;20688;-43
2023/06/01 04:59:36;;;;;;;10.60;9.00;;;;;;;15.74;100.00;94859.78;5070469;28;20183;-44
2023/06/01 05:02:04;;;;;;;12.53;9.63;;;;;;;15.82;100.00;94861.53;5070454;28;20205;-43
2023/06/01 05:04:31;;;;;;;17.80;10.50;;;;;;;15.85;100.00;94856.88;5070360;28;20748;-44
2023/06/01 05:06:57;;;;;;;12.53;11.20;;;;;;;16.12;100.00;94858.22;5070375;28;20611;-45
2023/06/01 05:09:25;;;;;;;15.03;10.87;;;;;;;16.25;100.00;94855.09;5069906;28;20247;-45
2023/06/01 05:11:53;;;;;;;15.70;11.80;;;;;;;16.34;100.00;94861.84;5064884;28;20202;-44
2023/06/01 05:14:20;;;;;;;20.80;12.80;;;;;;;16.33;100.00;94862.00;5067120;28;20198;-43
2023/06/01 05:16:48;;;;;;;18.17;12.57;;;;;;;16.08;100.00;94853.56;5068762;28;20240;-43
2023/06/01 05:19:15;;;;;;;17.10;13.50;;;;;;;16.13;100.00;94864.97;5069044;28;20574;-44
2023/06/01 05:21:43;;;;;;;17.30;13.27;;;;;;;16.14;100.00;94865.78;5069076;28;20202;-44
2023/06/01 05:24:09;;;;;;;15.23;12.50;;;;;;;16.24;100.00;94867.19;5068428;28;20685;-45
2023/06/01 05:26:36;;;;;;;16.73;12.90;;;;;;;16.37;100.00;94865.88;5071814;28;20308;-44
2023/06/01 05:29:04;;;;;;;14.47;12.47;;;;;;;16.46;100.00;94865.66;5068871;28;20225;-43
2023/06/01 05:31:31;;;;;;;19.13;12.30;;;;;;;16.62;100.00;94864.72;5069232;28;20190;-44
2023/06/01 05:33:58;;;;;;;16.43;13.07;;;;;;;16.71;100.00;94855.16;5068423;28;20194;-43
2023/06/01 05:36:25;;;;;;;17.33;12.17;;;;;;;16.99;100.00;94856.28;5068672;28;20194;-43
2023/06/01 05:38:52;;;;;;;15.70;13.00;;;;;;;17.24;99.33;94849.16;5070842;28;20248;-46
2023/06/01 05:41:19;;;;;;;17.40;12.07;;;;;;;17.41;98.21;94854.19;5069008;28;20190;-45
2023/06/01 05:43:45;;;;;;;20.17;13.33;;;;;;;17.58;98.05;94858.22;5068752;28;20286;-45
2023/06/01 05:46:14;;;;;;;16.33;12.70;;;;;;;17.78;97.14;94858.53;5069134;28;20668;-43
2023/06/01 05:48:40;;;;;;;15.93;12.63;;;;;;;17.93;96.73;94855.97;5070726;28;20198;-45
2023/06/01 05:51:07;;;;;;;19.90;12.83;;;;;;;18.19;95.16;94864.06;5069711;28;20255;-43
2023/06/01 05:53:34;;;;;;;16.30;13.23;;;;;;;18.41;93.73;94858.94;5068453;28;20190;-44
2023/06/01 05:56:01;;;;;;;16.53;12.87;;;;;;;18.70;92.77;94866.69;5068427;28;20194;-43
2023/06/01 05:58:28;;;;;;;14.10;11.93;;;;;;;19.11;90.35;94866.06;5072202;28;20765;-44
2023/06/01 06:00:55;;;;;;;17.00;12.87;;;;;;;19.58;89.62;94858.66;5072572;28;20186;-44
2023/06/01 06:03:23;;;;;;;14.20;12.70;;;;;;;20.00;87.61;94866.34;5072326;28;20190;-45
2023/06/01 06:05:50;;;;;;;17.93;14.17;;;;;;;20.36;85.55;94870.50;5072183;28;20328;-45
2023/06/01 06:08:17;;;;;;;14.45;12.68;;;;;;;20.76;82.52;94874.06;5071984;28;20890;-44
2023/06/01 06:10:44;;;;;;;17.70;13.65;;;;;;;21.32;80.10;94870.38;5071954;28;20198;-46
2023/06/01 06:13:11;;;;;;;18.92;13.20;;;;;;;21.55;77.91;94870.00;5071888;28;20194;-52
2023/06/01 06:15:38;;;;;;;16.48;13.07;;;;;;;21.67;78.59;94863.16;5072161;28;20260;-45
2023/06/01 06:18:05;;;;;;;22.65;13.57;;;;;;;21.96;78.50;94861.13;5072079;28;20198;-45
2023/06/01 06:20:33;;;;;;;14.73;12.90;;;;;;;22.28;74.48;94862.88;5071409;28;20191;-46
2023/06/01 06:23:00;;;;;;;19.60;14.57;;;;;;;22.40;73.19;94864.81;5072513;28;20185;-45
2023/06/01 06:25:27;;;;;;;17.90;13.50;;;;;;;22.66;73.44;94875.13;5076824;28;20225;-45
2023/06/01 06:27:54;;;;;;;15.95;13.02;;;;;;;23.05;70.67;94873.34;5071768;28;20229;-44
2023/06/01 06:30:24;;;;;;;13.77;11.52;;;;;;;22.77;70.95;94803.28;5071405;28;20217;-45
2023/06/01 06:32:51;;;;;;;14.65;12.73;;;;;;;23.59;67.88;94871.16;5071952;28;20183;-47
2023/06/01 06:35:18;;;;;;;15.50;12.98;;;;;;;23.74;67.86;94872.44;5071069;28;20240;-44
2023/06/01 06:37:46;;;;;;;13.98;12.43;;;;;;;24.13;67.52;94873.06;5071658;28;20194;-43
2023/06/01 06:40:14;;;;;;;15.88;13.02;;;;;;;24.50;66.05;94884.34;5072477;28;20201;-43
2023/06/01 06:42:42;;;;;;;16.20;13.30;;;;;;;24.84;66.21;94876.09;5071877;28;20228;-45
2023/06/01 06:45:09;;;;;;;16.13;12.10;;;;;;;25.03;63.50;94875.03;5071436;28;20218;-46
2023/06/01 06:47:37;;;;;;;20.58;12.30;;;;;;;25.08;63.52;94872.56;5071194;28;20605;-46
2023/06/01 06:50:04;;;;;;;18.23;12.25;;;;;;;25.09;63.35;94873.38;5070771;28;20186;-45
2023/06/01 06:52:31;;;;;;;12.90;11.60;;;;;;;25.18;62.88;94872.03;5071531;28;20642;-45
2023/06/01 06:54:59;;;;;;;12.82;11.38;;;;;;;25.32;63.85;94868.19;5072410;28;20205;-45
2023/06/01 06:57:27;;;;;;;18.25;11.57;;;;;;;25.42;62.85;94846.69;5071823;28;20221;-47
2023/06/01 06:59:58;;;;;;;15.85;11.85;;;;;;;25.97;61.06;94862.09;5071823;28;20209;-45
2023/06/01 07:02:28;;;;;;;15.63;11.38;;;;;;;26.41;59.97;94870.34;5069336;28;20213;-47
2023/06/01 07:04:56;;;;;;;12.00;10.13;;;;;;;26.17;58.03;94833.72;5072234;28;20279;-43
2023/06/01 07:07:23;;;;;;;16.23;11.40;;;;;;;26.22;57.87;94869.72;5071729;28;20202;-47
2023/06/01 07:09:52;;;;;;;14.27;11.02;;;;;;;25.89;59.02;94863.25;5071341;28;20189;-45
2023/06/01 07:12:21;;;;;;;13.20;10.82;;;;;;;25.97;59.23;94867.34;5071961;28;21329;-46
2023/06/01 07:14:48;;;;;;;14.13;10.90;;;;;;;25.72;58.52;94862.31;5071192;28;20663;-44
2023/06/01 07:17:15;;;;;;;12.82;11.35;;;;;;;25.25;59.98;94877.94;5070948;28;20209;-46
2023/06/01 07:19:42;;;;;;;14.02;11.82;;;;;;;24.89;60.83;94866.56;5071613;28;20642;-45
2023/06/01 07:22:08;;;;;;;14.35;11.77;;;;;;;24.86;61.41;94869.63;5072535;28;20267;-43
2023/06/01 07:24:35;;;;;;;16.20;11.50;;;;;;;24.97;61.31;94866.25;5070961;28;20697;-46
2023/06/01 07:27:02;;;;;;;13.52;11.82;;;;;;;25.07;61.43;94860.47;5071368;28;20201;-42
2023/06/01 07:29:32;;;;;;;13.40;9.82;;;;;;;25.48;62.12;94853.66;5071130;28;20233;-43
2023/06/01 07:32:00;;;;;;;13.90;11.65;;;;;;;26.15;61.18;94853.31;5069170;28;20265;-52
2023/06/01 07:34:27;;;;;;;18.30;10.20;;;;;;;26.52;57.49;94853.84;5071005;28;20190;-43
2023/06/01 07:36:58;;;;;;;21.35;10.40;;;;;;;26.74;57.11;94853.97;5071237;28;20194;-44
2023/06/01 07:39:26;;;;;;;10.77;9.75;;;;;;;26.87;55.84;94853.69;5070991;28;20733;-46
2023/06/01 07:41:54;;;;;;;11.85;10.48;;;;;;;27.01;55.64;94841.88;5070832;28;20202;-44
2023/06/01 07:44:21;;;;;;;12.82;10.73;;;;;;;26.94;56.05;94843.03;5070179;28;20183;-47
2023/06/01 07:46:49;;;;;;;16.85;11.55;;;;;;;26.87;56.10;94845.81;5070430;28;20665;-45
2023/06/01 07:49:17;;;;;;;13.70;10.73;;;;;;;27.02;55.41;94851.31;5070184;28;20214;-48
2023/06/01 07:51:44;;;;;;;13.98;11.25;;;;;;;26.88;56.43;94844.00;5070295;28;20195;-44
2023/06/01 07:54:11;;;;;;;18.75;10.88;;;;;;;26.87;56.00;94834.53;5070458;28;20205;-43
2023/06/01 07:56:42;;;;;;;15.55;10.43;;;;;;;26.85;56.56;94836.56;5069520;28;20210;-43
2023/06/01 07:59:09;;;;;;;11.65;9.30;;;;;;;26.78;56.97;94839.38;5070226;28;20210;-44
2023/06/01 08:01:37;;;;;;;15.38;10.68;;;;;;;26.71;56.08;94839.50;5070654;28;20299;-43
2023/06/01 08:04:06;;;;;;;16.80;11.70;;;;;;;26.64;55.63;94838.84;5070599;28;20178;-43
2023/06/01 08:06:35;;;;;;;10.82;9.65;;;;;;;26.72;56.88;94829.78;5067787;28;20229;-42
2023/06/01 08:09:02;;;;;;;15.13;11.10;;;;;;;26.92;57.55;94839.88;5070324;28;20635;-44
2023/06/01 08:11:29;;;;;;;19.95;13.85;;;;;;;27.05;57.69;94839.56;5071253;28;20213;-43
2023/06/01 08:13:56;;;;;;;19.77;14.45;;;;;;;27.15;56.98;94826.63;5075280;28;20669;-43
2023/06/01 08:16:22;;;;;;;18.30;14.50;;;;;;;27.25;57.25;94828.66;5067955;28;20233;-42
2023/06/01 08:18:50;;;;;;;26.48;13.73;;;;;;;27.27;57.09;94826.56;5067080;28;20212;-43
2023/06/01 08:21:19;;;;;;;17.08;14.10;;;;;;;27.12;57.09;94821.88;5069553;28;20194;-43
2023/06/01 08:23:47;;;;;;;17.13;13.40;;;;;;;26.41;57.49;94760.19;5067319;28;20270;-41
2023/06/01 08:26:13;;;;;;;18.10;12.38;;;;;;;26.73;57.94;94821.69;5069686;28;20206;-43
2023/06/01 08:28:41;;;;;;;18.52;13.80;;;;;;;26.63;57.41;94815.44;5072344;28;20222;-43
2023/06/01 08:31:07;;;;;;;16.13;12.32;;;;;;;26.30;58.16;94816.13;5069735;28;20197;-42
2023/06/01 08:33:34;;;;;;;18.45;12.88;;;;;;;26.39;58.79;94809.47;5069324;28;20202;-42
2023/06/01 08:36:01;;;;;;;19.58;14.93;;;;;;;26.37;58.96;94814.16;5065966;28;20205;-43
2023/06/01 08:38:32;;;;;;;24.38;14.90;;;;;;;26.23;58.92;94813.63;5066633;28;20205;-46
2023/06/01 08:41:04;;;;;;;17.75;12.70;;;;;;;26.09;59.05;94804.44;5069138;28;20202;-43
2023/06/01 08:43:33;;;;;;;15.13;12.70;;;;;;;25.89;59.35;94789.06;5069597;28;20195;-44
2023/06/01 08:46:00;;;;;;;18.80;13.60;;;;;;;26.11;59.29;94800.53;5069062;28;20305;-45
2023/06/01 08:48:28;;;;;;;16.25;12.25;;;;;;;26.36;59.43;94784.50;5069484;28;20185;-44
2023/06/01 08:50:57;;;;;;;14.93;12.38;;;;;;;26.95;58.48;94798.19;5068905;28;20186;-44
2023/06/01 08:53:25;;;;;;;15.90;13.82;;;;;;;27.16;58.16;94799.34;5069068;28;20178;-43
2023/06/01 08:55:54;;;;;;;19.65;13.43;;;;;;;27.25;57.72;94794.50;5068251;28;20235;-46
2023/06/01 08:58:21;;;;;;;22.55;13.98;;;;;;;27.40;57.30;94792.09;5069438;28;20214;-44
2023/06/01 09:00:49;;;;;;;19.88;12.98;;;;;;;27.33;56.45;94788.03;5069305;28;20552;-44
2023/06/01 09:03:15;;;;;;;13.98;11.55;;;;;;;27.12;56.21;94782.50;5069454;28;20546;-44
2023/06/01 09:05:42;;;;;;;16.75;10.55;;;;;;;26.91;56.72;94767.41;5068967;28;20206;-44
2023/06/01 09:08:10;;;;;;;17.58;13.02;;;;;;;26.91;56.08;94786.56;5068958;28;20198;-45
2023/06/01 09:10:37;;;;;;;14.38;11.60;;;;;;;26.72;55.41;94785.19;5068771;28;20269;-45
2023/06/01 09:13:05;;;;;;;13.77;10.07;;;;;;;26.75;54.55;94787.34;5068842;28;20198;-45
2023/06/01 09:15:32;;;;;;;14.00;9.80;;;;;;;26.85;54.75;94784.09;5068932;28;20202;-43
2023/06/01 09:18:07;;;;;;;16.90;9.45;;;;;;;26.98;54.99;94784.56;5068691;28;20206;-45
2023/06/01 09:20:34;;;;;;;16.92;10.60;;;;;;;26.91;54.72;94780.53;5069309;28;20269;-44
2023/06/01 09:23:01;;;;;;;11.05;9.45;;;;;;;26.75;55.36;94780.25;5069274;28;20280;-46
2023/06/01 09:25:30;;;;;;;19.05;11.70;;;;;;;26.68;56.09;94776.97;5068690;28;20213;-45
2023/06/01 09:27:59;;;;;;;23.42;10.63;;;;;;;26.73;56.63;94778.91;5066364;28;20229;-43
2023/06/01 09:30:39;;;;;;;12.55;8.70;;;;;;;26.83;56.33;94784.34;5069271;28;20197;-42
2023/06/01 09:33:14;;;;;;;19.45;12.10;;;;;;;26.90;55.48;94773.66;5068220;28;20194;-42
2023/06/01 09:35:42;;;;;;;16.77;10.23;;;;;;;26.69;55.98;94770.72;5066134;28;20519;-42
2023/06/01 09:38:10;;;;;;;12.93;9.63;;;;;;;26.70;56.67;94771.50;5069078;28;20199;-41
2023/06/01 09:40:38;;;;;;;10.63;8.75;;;;;;;26.73;56.92;94763.97;5069694;28;20626;-42
2023/06/01 09:43:19;;;;;;;10.60;8.10;;;;;;;26.76;56.37;94765.31;5070191;28;20209;-43
2023/06/01 09:46:04;;;;;;;14.23;7.75;;;;;;;26.41;56.39;94752.34;5069315;28;20673;-44
2023/06/01 09:48:31;;;;;;;21.40;7.88;;;;;;;26.10;56.43;94730.00;5071810;28;20182;-43
2023/06/01 09:50:58;;;;;;;10.25;8.25;;;;;;;26.08;57.04;94753.84;5070346;28;20197;-44
2023/06/01 09:53:26;;;;;;;12.82;7.90;;;;;;;25.95;57.04;94754.06;5072084;28;20193;-43
2023/06/01 09:55:59;;;;;;;10.00;8.15;;;;;;;25.86;57.41;94748.41;5074591;28;20194;-43
2023/06/01 09:58:27;;;;;;;11.45;8.63;;;;;;;25.87;57.80;94739.53;5070552;28;20597;-44
2023/06/01 10:00:55;;;;;;;13.45;9.05;;;;;;;25.87;58.34;94741.34;5069934;28;20205;-43
2023/06/01 10:03:23;;;;;;;11.63;8.45;;;;;;;25.90;59.20;94740.88;5073373;28;20178;-44
2023/06/01 10:05:50;;;;;;;9.57;7.03;;;;;;;26.01;59.19;94727.75;5079285;28;20253;-43
2023/06/01 10:08:18;;;;;;;7.63;5.82;;;;;;;26.11;55.08;94721.88;5078957;28;20197;-49
2023/06/01 10:10:47;;;;;;;7.45;5.22;;;;;;;26.31;53.30;94737.22;5071420;28;20194;-47
2023/06/01 10:13:14;;;;;;;9.48;4.68;;;;;;;26.31;53.22;94731.97;5071868;28;20190;-44
2023/06/01 10:15:40;;;;;;;6.93;4.70;;;;;;;26.31;52.51;94737.22;5078289;28;20660;-43
2023/06/01 10:18:09;;;;;;;6.57;5.25;;;;;;;26.08;52.97;94718.94;5077719;28;20178;-43
2023/06/01 10:20:37;;;;;;;5.35;4.85;;;;;;;26.03;52.86;94738.78;5071596;28;20707;-43
2023/06/01 10:23:05;;;;;;;5.03;4.53;;;;;;;25.94;53.22;94742.00;5071183;28;20221;-44
2023/06/01 10:25:42;;;;;;;7.45;4.63;;;;;;;25.81;53.75;94745.69;5075769;28;20225;-45
2023/06/01 10:28:12;;;;;;;5.50;5.00;;;;;;;25.76;53.92;94745.53;5069640;28;20296;-45
2023/06/01 10:30:39;;;;;;;6.03;4.78;;;;;;;25.52;55.35;94752.66;5070259;28;20179;-46
2023/06/01 10:33:07;;;;;;;6.82;4.90;;;;;;;25.34;54.46;94744.91;5068531;28;20183;-42
2023/06/01 10:35:54;;;;;;;6.50;4.72;;;;;;;25.25;54.85;94741.81;5067919;28;20244;-44
2023/06/01 10:38:27;;;;;;;7.15;4.82;;;;;;;25.12;56.33;94753.31;5069205;28;20218;-46
2023/06/01 10:40:53;;;;;;;7.50;4.90;;;;;;;25.02;56.46;94740.75;5065156;28;20642;-43
2023/06/01 10:43:42;;;;;;;6.25;4.88;;;;;;;24.93;57.50;94739.50;5070176;28;20271;-44
2023/06/01 10:46:51;;;;;;;10.48;5.43;;;;;;;24.84;57.97;94730.41;5071223;28;20206;-42
2023/06/01 10:49:18;;;;;;;5.05;4.65;;;;;;;24.67;57.67;94724.22;5072668;28;20202;-45
2023/06/01 10:51:46;;;;;;;5.60;5.10;;;;;;;24.64;58.54;94719.44;5071840;28;20209;-42
2023/06/01 10:54:34;;;;;;;6.07;5.47;;;;;;;24.61;59.88;94717.25;5071921;28;20194;-44
2023/06/01 10:57:23;;;;;;;6.20;5.10;;;;;;;24.62;60.54;94711.03;5023715;28;20718;-43
2023/06/01 11:00:19;;;;;;;7.15;5.82;;;;;;;24.64;60.98;94712.38;5028828;28;20202;-44
2023/06/01 11:02:54;;;;;;;7.43;5.55;;;;;;;24.66;61.30;94706.94;5029153;28;20321;-43
2023/06/01 11:05:46;;;;;;;10.65;6.47;;;;;;;24.77;60.69;94698.31;5026519;28;20191;-43
2023/06/01 11:08:50;;;;;;;9.15;5.57;;;;;;;24.92;58.94;94705.72;5027211;28;20202;-43
2023/06/01 11:11:20;;;;;;;10.07;5.40;;;;;;;24.77;59.55;94693.06;5027886;28;20303;-43
2023/06/01 11:14:16;;;;;;;6.68;5.57;;;;;;;24.84;58.92;94691.16;5028387;28;20291;-43
2023/06/01 11:16:42;;;;;;;4.90;4.32;;;;;;;24.94;57.90;94699.22;5028185;28;20241;-44
2023/06/01 11:19:10;;;;;;;6.32;5.38;;;;;;;24.94;57.40;94696.59;5028772;28;20192;-44
2023/06/01 11:21:43;;;;;;;8.77;5.07;;;;;;;24.97;57.41;94692.75;5028838;28;20238;-43
2023/06/01 11:24:11;;;;;;;6.88;4.47;;;;;;;25.02;57.35;94692.88;5028474;28;20184;-45
2023/06/01 11:26:44;;;;;;;10.15;5.30;;;;;;;25.05;57.07;94679.34;5028444;28;20223;-44
2023/06/01 11:29:13;;;;;;;5.20;4.10;;;;;;;25.03;55.23;94666.47;5028248;28;20326;-44